Time;durP1;ratioP1;P1;durP2;ratioP2;P2;SDS_P1;SDS_P2;PMS_P1;PMS_P2;Temp;Humidity;BMP_temperature;BMP_pressure;BME280_temperature;BME280_humidity;BME280_pressure;Samples;Min_cycle;Max_cycle;Signal;HPM_P1;HPM_P2
2024/02/20 00:02:12;;;;;;;6.97;2.58;;;;;;;16.13;59.56;102548.44;10457228;28;20095;-58
2024/02/20 00:07:12;;;;;;;4.35;2.53;;;;;;;16.12;58.48;102552.16;10457479;28;20052;-58
2024/02/20 00:12:13;;;;;;;6.93;2.77;;;;;;;16.11;57.80;102549.72;10456653;28;20121;-58
2024/02/20 00:17:13;;;;;;;9.65;2.72;;;;;;;16.10;58.13;102546.19;10457275;28;20279;-58
2024/02/20 00:22:14;;;;;;;4.43;2.40;;;;;;;16.08;57.75;102551.78;10456560;28;20021;-58
2024/02/20 00:27:14;;;;;;;5.07;2.07;;;;;;;16.08;58.77;102551.78;10456482;28;20283;-58
2024/02/20 00:32:16;;;;;;;5.03;2.33;;;;;;;16.06;57.88;102551.22;10456095;28;20283;-58
2024/02/20 00:37:17;;;;;;;6.40;2.50;;;;;;;16.06;58.55;102561.09;10455210;28;20287;-59
2024/02/20 00:42:18;;;;;;;9.50;2.77;;;;;;;16.04;59.21;102553.31;10455816;28;20025;-58
2024/02/20 00:47:19;;;;;;;6.05;2.75;;;;;;;16.03;58.37;102557.03;10456288;28;20287;-58
2024/02/20 00:52:19;;;;;;;6.00;2.43;;;;;;;16.02;57.63;102570.66;10455189;28;20512;-59
2024/02/20 00:57:19;;;;;;;5.57;2.10;;;;;;;16.00;58.34;102564.72;10454669;28;20283;-58
2024/02/20 01:02:19;;;;;;;4.00;1.77;;;;;;;15.99;57.25;102566.59;10455227;28;20770;-58
2024/02/20 01:07:20;;;;;;;6.65;2.65;;;;;;;15.98;57.50;102570.31;10454028;28;20286;-58
2024/02/20 01:12:20;;;;;;;4.63;2.57;;;;;;;15.97;59.02;102578.53;10441028;28;20045;-58
2024/02/20 01:17:20;;;;;;;8.40;3.17;;;;;;;15.96;58.51;102567.03;10454877;28;20690;-58
2024/02/20 01:22:21;;;;;;;7.00;2.80;;;;;;;15.95;59.08;102573.44;10454163;28;20279;-58
2024/02/20 01:27:21;;;;;;;5.05;2.28;;;;;;;15.95;58.42;102572.63;10454417;28;20032;-58
2024/02/20 01:32:23;;;;;;;7.00;2.40;;;;;;;15.93;58.34;102570.19;10453944;28;20364;-58
2024/02/20 01:37:23;;;;;;;5.35;2.60;;;;;;;15.93;58.69;102572.03;10454194;28;20283;-58
2024/02/20 01:42:25;;;;;;;6.33;2.90;;;;;;;15.92;59.00;102576.56;10452470;28;20029;-58
2024/02/20 01:47:25;;;;;;;4.32;1.77;;;;;;;15.90;58.33;102575.19;10453530;28;20271;-58
2024/02/20 01:52:25;;;;;;;5.93;2.97;;;;;;;15.89;58.69;102578.91;10453028;28;20080;-58
2024/02/20 01:57:26;;;;;;;3.78;2.05;;;;;;;15.88;58.20;102575.41;10451921;28;20306;-58
2024/02/20 02:02:26;;;;;;;4.03;2.13;;;;;;;15.87;58.24;102571.13;10451496;28;20028;-58
2024/02/20 02:07:26;;;;;;;4.87;1.90;;;;;;;15.86;59.19;102574.81;10452674;28;20317;-58
2024/02/20 02:12:27;;;;;;;3.17;1.60;;;;;;;15.86;59.15;102580.16;10451873;28;20310;-58
2024/02/20 02:17:27;;;;;;;5.15;1.73;;;;;;;15.85;57.63;102585.75;10452699;28;20029;-58
2024/02/20 02:22:28;;;;;;;5.97;2.27;;;;;;;15.83;57.93;102583.31;10452240;28;20031;-58
2024/02/20 02:27:28;;;;;;;4.10;2.00;;;;;;;15.83;57.70;102587.84;10452144;28;20291;-58
2024/02/20 02:32:29;;;;;;;6.40;2.00;;;;;;;15.82;57.60;102583.53;10451293;28;20286;-58
2024/02/20 02:37:29;;;;;;;5.22;2.28;;;;;;;15.80;57.82;102586.44;10451572;28;20365;-58
2024/02/20 02:42:30;;;;;;;7.45;2.42;;;;;;;15.78;58.42;102578.66;10451656;28;20437;-59
2024/02/20 02:47:31;;;;;;;3.97;2.05;;;;;;;15.78;57.39;102585.88;10449475;28;20032;-58
2024/02/20 02:52:32;;;;;;;7.38;2.53;;;;;;;15.75;58.53;102576.47;10449819;28;20620;-58
2024/02/20 02:57:32;;;;;;;5.20;2.05;;;;;;;15.76;59.15;102585.28;10450722;28;20031;-58
2024/02/20 03:02:32;;;;;;;8.90;2.20;;;;;;;15.74;59.00;102585.50;10450824;28;20031;-58
2024/02/20 03:07:33;;;;;;;4.97;1.90;;;;;;;15.74;59.09;102582.00;10450358;28;20287;-58
2024/02/20 03:12:33;;;;;;;4.13;2.05;;;;;;;15.73;57.50;102581.19;10450239;28;20296;-59
2024/02/20 03:17:34;;;;;;;3.65;2.05;;;;;;;15.71;59.33;102577.94;10449471;28;20040;-59
2024/02/20 03:22:35;;;;;;;5.00;2.53;;;;;;;15.71;57.64;102577.13;10450562;28;20495;-58
2024/02/20 03:27:36;;;;;;;7.13;1.95;;;;;;;15.70;58.45;102588.88;10449932;28;20454;-59
2024/02/20 03:32:37;;;;;;;6.22;2.53;;;;;;;15.69;58.50;102582.72;10450294;28;20079;-59
2024/02/20 03:37:40;;;;;;;6.25;2.00;;;;;;;15.66;57.95;102579.69;10448384;28;20037;-58
2024/02/20 03:42:40;;;;;;;5.13;1.70;;;;;;;15.67;58.73;102581.31;10450010;28;20429;-59
2024/02/20 03:47:40;;;;;;;6.03;2.10;;;;;;;15.66;57.54;102577.03;10449402;28;20067;-58
2024/02/20 03:52:41;;;;;;;3.40;1.80;;;;;;;15.65;58.27;102570.03;10449872;28;20777;-58
2024/02/20 03:57:42;;;;;;;5.77;2.30;;;;;;;15.63;58.11;102567.59;10449740;28;20275;-59
2024/02/20 04:02:45;;;;;;;5.90;1.92;;;;;;;15.63;57.50;102566.78;10449420;28;20754;-58
2024/02/20 04:07:46;;;;;;;5.47;1.67;;;;;;;15.61;58.14;102561.66;10449045;28;20109;-58
2024/02/20 04:12:46;;;;;;;3.42;1.63;;;;;;;15.60;57.66;102559.22;10449093;28;20045;-58
2024/02/20 04:17:47;;;;;;;8.43;3.00;;;;;;;15.60;57.89;102557.34;10448791;28;20057;-58
2024/02/20 04:22:47;;;;;;;6.13;1.80;;;;;;;15.59;58.48;102558.34;10449381;28;20361;-58
2024/02/20 04:27:48;;;;;;;7.00;2.27;;;;;;;15.59;57.94;102549.53;10448573;28;20283;-58
2024/02/20 04:32:48;;;;;;;7.20;1.70;;;;;;;15.57;57.84;102557.78;10453557;28;20292;-58
2024/02/20 04:37:48;;;;;;;6.00;2.00;;;;;;;15.60;58.37;102560.03;10454975;28;20025;-58
2024/02/20 04:42:49;;;;;;;7.03;2.53;;;;;;;15.71;59.81;102556.53;10455949;28;20267;-59
2024/02/20 04:47:49;;;;;;;4.90;2.33;;;;;;;15.83;59.39;102558.41;10454764;28;20025;-60
2024/02/20 04:52:49;;;;;;;4.68;1.75;;;;;;;15.96;58.71;102553.66;10453583;28;20782;-59
2024/02/20 04:57:50;;;;;;;4.95;2.63;;;;;;;16.11;57.14;102549.72;10453998;28;20106;-59
2024/02/20 05:02:50;;;;;;;8.70;1.90;;;;;;;16.24;57.78;102547.59;10453391;28;20028;-58
2024/02/20 05:07:50;;;;;;;3.70;1.52;;;;;;;16.37;57.08;102543.84;10453830;28;20294;-59
2024/02/20 05:12:51;;;;;;;4.65;1.58;;;;;;;16.57;56.58;102560.31;10454528;28;20679;-59
2024/02/20 05:17:51;;;;;;;2.80;1.25;;;;;;;16.63;55.93;102553.22;10454583;28;20468;-60
2024/02/20 05:22:51;;;;;;;5.13;1.63;;;;;;;16.77;55.92;102561.81;10454812;28;20079;-60
2024/02/20 05:27:52;;;;;;;4.50;1.40;;;;;;;16.87;55.21;102568.19;10452600;28;20306;-59
2024/02/20 05:32:52;;;;;;;3.33;1.35;;;;;;;16.99;56.03;102557.44;10454112;28;20286;-60
2024/02/20 05:37:53;;;;;;;7.72;2.38;;;;;;;17.08;55.04;102544.47;10445583;28;20524;-60
2024/02/20 05:42:53;;;;;;;4.05;1.42;;;;;;;17.21;54.64;102552.19;10438131;28;20029;-59
2024/02/20 05:47:54;;;;;;;5.03;1.38;;;;;;;17.30;55.73;102553.44;10456317;28;20028;-60
2024/02/20 05:52:55;;;;;;;3.40;1.70;;;;;;;17.38;55.52;102546.84;10450198;28;20075;-59
2024/02/20 05:57:55;;;;;;;3.88;2.05;;;;;;;17.44;53.55;102549.38;10448279;28;20755;-60
2024/02/20 06:02:56;;;;;;;5.17;2.50;;;;;;;17.47;53.83;102548.09;10450426;28;20025;-59
2024/02/20 06:07:56;;;;;;;3.07;1.30;;;;;;;17.54;54.00;102543.38;10449307;28;20329;-60
2024/02/20 06:12:56;;;;;;;2.77;1.27;;;;;;;17.56;53.74;102541.25;10448952;28;20365;-60
2024/02/20 06:17:57;;;;;;;4.13;1.90;;;;;;;17.66;53.66;102535.25;10449479;28;20344;-60
2024/02/20 06:22:59;;;;;;;9.13;1.87;;;;;;;17.63;54.29;102541.09;10449172;28;20021;-57
2024/02/20 06:27:59;;;;;;;7.40;1.40;;;;;;;17.74;54.79;102532.97;10449343;28;20287;-56
2024/02/20 06:33:00;;;;;;;6.60;1.87;;;;;;;17.77;57.10;102535.19;10448555;28;20023;-59
2024/02/20 06:38:00;;;;;;;12.43;2.00;;;;;;;17.86;55.69;102540.94;10446723;28;20435;-59
2024/02/20 06:43:00;;;;;;;15.90;2.17;;;;;;;17.89;55.24;102548.50;10445791;28;20283;-57
2024/02/20 06:48:01;;;;;;;19.25;3.15;;;;;;;18.00;54.97;102560.22;10436179;28;20343;-58
2024/02/20 06:53:01;;;;;;;12.57;2.65;;;;;;;18.07;55.32;102563.53;10446603;28;20067;-59
2024/02/20 06:58:02;;;;;;;15.02;2.78;;;;;;;17.90;55.54;102576.97;10449531;28;20025;-60
2024/02/20 07:03:02;;;;;;;18.77;2.70;;;;;;;17.83;56.18;102566.41;10444953;28;20039;-61
2024/02/20 07:08:03;;;;;;;12.85;3.13;;;;;;;17.92;55.42;102563.31;10443945;28;20017;-58
2024/02/20 07:13:03;;;;;;;12.88;2.88;;;;;;;17.95;55.92;102570.88;10442917;28;20618;-59
2024/02/20 07:18:04;;;;;;;9.88;3.03;;;;;;;17.98;55.57;102565.81;10449154;28;20118;-59
2024/02/20 07:23:06;;;;;;;19.75;4.28;;;;;;;18.03;57.14;102567.78;10449294;28;20623;-58
2024/02/20 07:28:06;;;;;;;15.93;2.67;;;;;;;18.21;55.68;102575.53;10447384;28;20075;-58
2024/02/20 07:33:06;;;;;;;69.67;17.07;;;;;;;18.22;55.46;102569.09;10449028;28;20302;-57
2024/02/20 07:38:06;;;;;;;52.20;13.93;;;;;;;18.12;56.84;102568.97;10448588;28;20283;-58
2024/02/20 07:43:07;;;;;;;46.60;9.40;;;;;;;18.03;56.39;102552.47;10448958;28;20282;-58
2024/02/20 07:48:11;;;;;;;40.13;9.23;;;;;;;17.95;57.05;102547.50;10435795;28;20934;-58
2024/02/20 07:53:11;;;;;;;40.90;8.48;;;;;;;17.89;57.51;102548.50;10448507;28;20299;-57
2024/02/20 07:58:11;;;;;;;42.60;9.17;;;;;;;17.78;57.76;102562.84;10448492;28;20020;-56
2024/02/20 08:03:13;;;;;;;26.80;7.17;;;;;;;17.65;58.35;102571.19;10447148;28;20283;-58
2024/02/20 08:08:14;;;;;;;40.63;9.10;;;;;;;17.68;57.40;102566.13;10456212;28;20028;-56
2024/02/20 08:13:14;;;;;;;27.60;6.17;;;;;;;17.67;57.38;102567.19;10455905;28;20045;-56
2024/02/20 08:18:14;;;;;;;30.83;7.23;;;;;;;17.69;57.82;102564.28;10455603;28;20056;-57
2024/02/20 08:23:15;;;;;;;19.42;5.57;;;;;;;17.65;57.30;102557.78;10455789;28;20692;-57
2024/02/20 08:28:15;;;;;;;20.10;7.05;;;;;;;17.54;57.71;102554.13;10454056;28;20411;-57
2024/02/20 08:33:15;;;;;;;19.20;5.93;;;;;;;17.43;57.17;102560.34;10455732;28;20442;-58
2024/02/20 08:38:16;;;;;;;24.67;6.40;;;;;;;17.48;57.90;102565.78;10454669;28;20271;-58
2024/02/20 08:43:16;;;;;;;27.35;5.80;;;;;;;17.51;57.54;102570.66;10455329;28;20279;-57
2024/02/20 08:48:16;;;;;;;20.58;5.32;;;;;;;17.43;57.39;102574.56;10453416;28;20384;-58
2024/02/20 08:53:17;;;;;;;23.00;4.80;;;;;;;17.40;57.40;102577.72;10454466;28;20492;-58
2024/02/20 08:58:17;;;;;;;24.48;5.57;;;;;;;17.49;58.76;102578.97;10454464;28;20039;-57
2024/02/20 09:03:18;;;;;;;18.63;5.13;;;;;;;17.46;58.64;102579.44;10454435;28;20132;-58
2024/02/20 09:08:18;;;;;;;24.77;4.32;;;;;;;17.42;58.17;102580.19;10448084;28;20459;-58
2024/02/20 09:13:18;;;;;;;19.40;5.00;;;;;;;17.40;57.56;102585.75;10453563;28;20045;-58
2024/02/20 09:18:19;;;;;;;22.00;6.23;;;;;;;17.41;57.84;102589.28;10452418;28;20283;-57
2024/02/20 09:23:19;;;;;;;11.33;4.47;;;;;;;17.38;58.24;102585.19;10453634;28;20329;-58
2024/02/20 09:28:19;;;;;;;16.17;4.10;;;;;;;17.37;57.63;102590.81;10452896;28;20310;-57
2024/02/20 09:33:20;;;;;;;11.87;4.43;;;;;;;17.34;57.75;102578.72;10452939;28;20484;-58
2024/02/20 09:38:20;;;;;;;16.23;4.23;;;;;;;17.33;57.65;102582.44;10452305;28;20021;-58
2024/02/20 09:43:20;;;;;;;14.60;3.93;;;;;;;17.33;57.12;102581.63;10452959;28;20782;-58
2024/02/20 09:48:21;;;;;;;13.60;3.77;;;;;;;17.32;57.09;102583.50;10452743;28;20287;-57
2024/02/20 09:53:22;;;;;;;12.93;4.85;;;;;;;17.29;58.20;102584.00;10451146;28;20290;-57
2024/02/20 09:58:23;;;;;;;11.23;4.47;;;;;;;17.30;58.36;102569.53;10450922;28;20558;-58
2024/02/20 10:03:27;;;;;;;12.70;3.30;;;;;;;17.20;56.94;102556.75;10452282;28;20291;-58
2024/02/20 10:08:28;;;;;;;6.40;3.15;;;;;;;17.24;56.66;102559.75;10450812;28;20025;-58
2024/02/20 10:13:28;;;;;;;14.25;3.45;;;;;;;17.23;57.91;102550.09;10451507;28;20049;-57
2024/02/20 10:18:28;;;;;;;14.30;3.37;;;;;;;17.24;56.66;102539.13;10451192;28;20025;-57
2024/02/20 10:23:29;;;;;;;13.67;4.23;;;;;;;17.24;56.68;102544.47;10451380;28;20260;-58
2024/02/20 10:28:30;;;;;;;6.53;2.70;;;;;;;17.25;57.83;102553.34;10449701;28;20279;-58
2024/02/20 10:33:32;;;;;;;6.80;2.80;;;;;;;17.23;57.04;102540.19;10450424;28;20373;-58
2024/02/20 10:38:32;;;;;;;10.50;4.30;;;;;;;17.22;56.76;102554.63;10449762;28;20021;-57
2024/02/20 10:43:33;;;;;;;11.27;3.15;;;;;;;17.21;57.19;102538.81;10448783;28;20372;-57
2024/02/20 10:48:34;;;;;;;7.18;3.17;;;;;;;17.20;57.81;102538.00;10449292;28;20120;-57
2024/02/20 10:53:35;;;;;;;8.82;2.63;;;;;;;17.17;57.02;102535.00;10448364;28;20017;-57
2024/02/20 10:58:39;;;;;;;7.32;2.72;;;;;;;17.16;57.39;102528.78;10450141;28;20028;-58
2024/02/20 11:03:40;;;;;;;13.77;2.90;;;;;;;17.11;57.98;102517.97;10449050;28;20013;-58
2024/02/20 11:08:43;;;;;;;6.65;2.70;;;;;;;17.09;57.32;102516.59;10448246;28;20036;-57
2024/02/20 11:13:43;;;;;;;7.80;2.45;;;;;;;17.10;57.25;102502.16;10448585;28;20526;-57
2024/02/20 11:18:54;;;;;;;9.65;2.65;;;;;;;17.13;58.10;102493.63;10448115;28;20036;-57
2024/02/20 11:23:55;;;;;;;5.72;2.40;;;;;;;17.13;57.61;102493.63;10449164;28;20036;-58
2024/02/20 11:28:55;;;;;;;11.18;3.20;;;;;;;17.15;56.88;102486.94;10448972;28;20447;-57
2024/02/20 11:33:57;;;;;;;7.07;2.40;;;;;;;17.15;57.80;102470.88;10448560;28;20032;-57
2024/02/20 11:39:02;;;;;;;6.15;2.88;;;;;;;17.15;58.02;102481.59;10450483;28;20110;-58
2024/02/20 11:44:03;;;;;;;5.85;2.05;;;;;;;17.13;57.25;102480.22;10456803;28;20315;-58
2024/02/20 11:49:04;;;;;;;8.18;2.88;;;;;;;17.10;58.20;102464.63;10456082;28;20078;-57
2024/02/20 11:54:06;;;;;;;6.40;1.92;;;;;;;17.12;58.44;102457.97;10455410;28;20039;-57
2024/02/20 11:59:08;;;;;;;6.13;2.13;;;;;;;17.10;57.07;102460.06;10456736;28;20123;-58
2024/02/20 12:04:11;;;;;;;5.72;2.15;;;;;;;17.12;57.63;102439.19;10443162;28;20021;-58
2024/02/20 12:09:17;;;;;;;6.13;2.33;;;;;;;17.08;58.21;102450.66;10456121;28;20053;-58
2024/02/20 12:14:18;;;;;;;6.13;2.17;;;;;;;17.09;57.43;102437.00;10454486;28;20059;-58
2024/02/20 12:19:22;;;;;;;6.47;2.40;;;;;;;17.04;58.02;102428.06;10456053;28;20064;-58
2024/02/20 12:24:22;;;;;;;5.05;1.77;;;;;;;17.06;58.24;102429.47;10455770;28;20591;-57
2024/02/20 12:29:22;;;;;;;6.82;2.25;;;;;;;17.05;58.23;102411.78;10455506;28;20025;-58
2024/02/20 12:34:23;;;;;;;5.47;2.30;;;;;;;17.03;57.54;102403.13;10455131;28;20498;-58
2024/02/20 12:39:25;;;;;;;5.90;1.80;;;;;;;17.00;58.29;102384.06;10455917;28;20362;-58
2024/02/20 12:44:25;;;;;;;9.05;2.13;;;;;;;16.99;57.50;102372.53;10454661;28;20029;-58
2024/02/20 12:49:25;;;;;;;5.32;2.10;;;;;;;16.99;58.79;102371.72;10454969;28;20029;-58
2024/02/20 12:54:26;;;;;;;6.13;2.03;;;;;;;16.99;57.39;102367.16;10453346;28;20033;-58
2024/02/20 12:59:30;;;;;;;7.50;2.13;;;;;;;16.98;58.25;102370.09;10455214;28;20052;-58
2024/02/20 13:04:30;;;;;;;4.90;1.83;;;;;;;16.99;57.18;102358.31;10453853;28;20275;-58
2024/02/20 13:09:30;;;;;;;5.60;2.27;;;;;;;16.98;58.73;102359.38;10452882;28;20071;-58
2024/02/20 13:14:31;;;;;;;3.80;1.50;;;;;;;16.97;58.58;102355.88;10453333;28;20290;-58
2024/02/20 13:19:32;;;;;;;4.72;2.08;;;;;;;16.98;57.18;102338.75;10453691;28;20718;-58
2024/02/20 13:24:32;;;;;;;4.38;2.00;;;;;;;16.98;57.46;102327.22;10453265;28;20108;-57
2024/02/20 13:29:33;;;;;;;12.10;2.30;;;;;;;17.01;57.69;102324.84;10453759;28;20051;-58
2024/02/20 13:34:33;;;;;;;5.20;1.77;;;;;;;17.02;57.39;102323.78;10452906;28;20366;-58
2024/02/20 13:39:33;;;;;;;8.23;2.43;;;;;;;17.04;57.35;102304.78;10451450;28;20283;-58
2024/02/20 13:44:34;;;;;;;6.20;2.20;;;;;;;17.08;57.17;102279.13;10451477;28;20295;-57
2024/02/20 13:49:36;;;;;;;3.93;1.80;;;;;;;16.98;57.98;102279.81;10451354;28;20290;-57
2024/02/20 13:54:36;;;;;;;5.97;1.58;;;;;;;16.97;58.63;102255.94;10451857;28;20291;-57
2024/02/20 13:59:37;;;;;;;5.60;1.60;;;;;;;16.93;58.27;102261.00;10452218;28;20090;-57
2024/02/20 14:04:37;;;;;;;5.38;1.70;;;;;;;16.92;58.82;102243.25;10451548;28;20271;-57
2024/02/20 14:09:37;;;;;;;2.93;1.53;;;;;;;16.91;59.71;102242.44;10452043;28;20423;-57
2024/02/20 14:14:38;;;;;;;4.30;1.92;;;;;;;16.89;59.69;102233.06;10451390;28;20337;-58
2024/02/20 14:19:38;;;;;;;5.40;2.00;;;;;;;16.85;59.22;102237.28;10451616;28;20528;-58
2024/02/20 14:24:40;;;;;;;3.77;1.57;;;;;;;16.84;58.75;102233.00;10450805;28;20271;-58
2024/02/20 14:29:40;;;;;;;5.85;1.92;;;;;;;16.83;58.58;102231.38;10451163;28;20863;-57
2024/02/20 14:34:40;;;;;;;4.20;1.67;;;;;;;16.79;59.91;102233.72;10450378;28;20127;-56
2024/02/20 14:39:41;;;;;;;5.67;2.40;;;;;;;16.86;57.79;102236.22;10449521;28;20032;-58
2024/02/20 14:44:43;;;;;;;6.40;2.05;;;;;;;16.98;58.15;102252.19;10451125;28;20622;-59
2024/02/20 14:49:44;;;;;;;8.18;2.47;;;;;;;17.03;59.46;102271.00;10457881;28;20044;-58
2024/02/20 14:54:45;;;;;;;10.43;2.93;;;;;;;17.08;57.74;102260.38;10450718;28;20025;-58
2024/02/20 14:59:46;;;;;;;8.63;2.45;;;;;;;17.12;58.63;102266.84;10451339;28;20283;-60
2024/02/20 15:04:46;;;;;;;10.85;3.08;;;;;;;17.10;58.43;102260.94;10450453;28;20075;-59
2024/02/20 15:09:48;;;;;;;5.43;1.98;;;;;;;17.02;57.76;102269.41;10444322;28;20696;-58
2024/02/20 15:14:49;;;;;;;13.88;2.47;;;;;;;16.96;58.31;102289.97;10440422;28;20089;-59
2024/02/20 15:19:50;;;;;;;16.90;2.97;;;;;;;16.94;59.48;102286.72;10443548;28;20082;-58
2024/02/20 15:24:51;;;;;;;22.33;3.72;;;;;;;16.91;60.01;102284.50;10444113;28;20441;-58
2024/02/20 15:29:53;;;;;;;13.88;3.42;;;;;;;16.97;59.33;102270.16;10440906;28;20039;-58
2024/02/20 15:34:53;;;;;;;13.57;3.88;;;;;;;16.93;60.09;102259.13;10444380;28;20436;-58
2024/02/20 15:39:54;;;;;;;24.60;4.05;;;;;;;16.96;60.62;102260.50;10446318;28;20017;-58
2024/02/20 15:44:54;;;;;;;22.23;5.22;;;;;;;17.08;58.55;102252.34;10441608;28;20510;-57
2024/02/20 15:49:54;;;;;;;18.38;5.50;;;;;;;17.04;58.19;102264.59;10445132;28;20034;-57
2024/02/20 15:54:55;;;;;;;19.83;5.10;;;;;;;17.02;58.34;102266.72;10439494;28;20027;-57
2024/02/20 15:59:55;;;;;;;13.07;3.43;;;;;;;17.00;58.95;102263.47;10447744;28;20275;-57
2024/02/20 16:04:57;;;;;;;13.35;3.40;;;;;;;17.00;57.53;102269.66;10443294;28;20773;-57
2024/02/20 16:09:58;;;;;;;10.68;3.17;;;;;;;17.02;58.96;102264.84;10444732;28;20075;-57
2024/02/20 16:14:58;;;;;;;9.67;3.47;;;;;;;16.99;58.93;102260.00;10448837;28;20561;-57
2024/02/20 16:19:58;;;;;;;10.70;4.00;;;;;;;16.93;58.93;102259.13;10448878;28;20292;-57
2024/02/20 16:24:59;;;;;;;9.57;3.58;;;;;;;16.94;58.77;102258.06;10449047;28;20333;-57
2024/02/20 16:29:59;;;;;;;8.80;2.92;;;;;;;17.08;58.85;102257.69;10456492;28;20025;-56
2024/02/20 16:35:00;;;;;;;212.18;81.20;;;;;;;17.14;60.20;102254.00;10455574;28;20431;-57
2024/02/20 16:40:00;;;;;;;106.68;43.75;;;;;;;17.08;58.48;102242.44;10455305;28;20035;-58
2024/02/20 16:45:02;;;;;;;92.47;34.20;;;;;;;17.09;58.61;102240.56;10457511;28;20124;-57
2024/02/20 16:50:02;;;;;;;75.03;29.38;;;;;;;17.06;58.11;102251.78;10455664;28;20115;-56
2024/02/20 16:55:03;;;;;;;68.25;23.45;;;;;;;17.12;57.27;102234.69;10455782;28;20437;-56
2024/02/20 17:00:04;;;;;;;71.28;22.20;;;;;;;17.18;58.42;102233.72;10455790;28;20025;-57
2024/02/20 17:05:11;;;;;;;61.55;22.55;;;;;;;17.20;57.17;102228.91;10454957;28;20078;-57
2024/02/20 17:10:12;;;;;;;42.97;20.60;;;;;;;17.20;58.55;102227.03;10454861;28;20048;-56
2024/02/20 17:15:12;;;;;;;49.63;18.77;;;;;;;17.23;60.21;102228.41;10448971;28;20048;-57
2024/02/20 17:20:13;;;;;;;46.30;19.60;;;;;;;17.48;61.79;102225.22;10454892;28;20119;-56
2024/02/20 17:25:13;;;;;;;50.67;20.30;;;;;;;17.52;62.12;102234.38;10454491;28;20051;-57
2024/02/20 17:30:14;;;;;;;49.20;17.03;;;;;;;17.58;62.32;102221.84;10454445;28;20032;-57
2024/02/20 17:35:14;;;;;;;48.17;18.38;;;;;;;17.58;61.28;102230.69;10453775;28;20310;-60
2024/02/20 17:40:15;;;;;;;45.22;17.83;;;;;;;17.59;60.86;102229.63;10453491;28;20048;-58
2024/02/20 17:45:21;;;;;;;40.67;17.33;;;;;;;17.54;60.26;102219.66;10452321;28;20102;-60
2024/02/20 17:50:22;;;;;;;38.15;16.45;;;;;;;17.51;61.06;102213.97;10452496;28;20415;-58
2024/02/20 17:55:23;;;;;;;39.95;15.40;;;;;;;17.50;61.06;102215.84;10453370;28;20032;-59
2024/02/20 18:00:23;;;;;;;40.45;14.77;;;;;;;17.45;61.04;102213.13;10452924;28;20041;-58
2024/02/20 18:05:24;;;;;;;40.13;14.18;;;;;;;17.33;60.07;102208.97;10452630;28;20025;-58
2024/02/20 18:10:24;;;;;;;25.53;12.33;;;;;;;17.27;61.03;102213.44;10452491;28;20041;-59
2024/02/20 18:15:24;;;;;;;29.53;13.40;;;;;;;17.17;60.07;102211.47;10450870;28;20398;-59
2024/02/20 18:20:25;;;;;;;33.57;14.10;;;;;;;17.14;59.77;102197.72;10452546;28;20319;-59
2024/02/20 18:25:25;;;;;;;28.73;11.57;;;;;;;17.18;60.55;102204.22;10451661;28;20278;-58
2024/02/20 18:30:26;;;;;;;29.90;12.97;;;;;;;17.10;60.32;102202.78;10451899;28;20275;-58
2024/02/20 18:35:26;;;;;;;26.77;12.45;;;;;;;17.09;61.21;102198.50;10451690;28;20295;-58
2024/02/20 18:40:27;;;;;;;33.97;12.60;;;;;;;17.08;59.75;102196.06;10450545;28;20068;-58
2024/02/20 18:45:28;;;;;;;28.33;11.57;;;;;;;17.10;60.09;102177.84;10450993;28;20329;-58
2024/02/20 18:50:29;;;;;;;25.65;11.65;;;;;;;17.11;59.83;102187.50;10450377;28;20131;-57
2024/02/20 18:55:29;;;;;;;24.13;10.93;;;;;;;17.15;59.43;102181.41;10448271;28;20037;-56
2024/02/20 19:00:29;;;;;;;26.63;10.70;;;;;;;17.18;59.69;102183.59;10450664;28;20294;-56
2024/02/20 19:05:30;;;;;;;22.40;10.73;;;;;;;17.22;59.43;102187.38;10450503;28;20263;-57
2024/02/20 19:10:30;;;;;;;27.63;10.73;;;;;;;17.24;59.51;102174.53;10450292;28;20299;-57
2024/02/20 19:15:31;;;;;;;21.48;9.80;;;;;;;17.24;59.41;102174.53;10449243;28;20299;-57
2024/02/20 19:20:32;;;;;;;18.27;10.23;;;;;;;17.29;59.05;102170.31;10447940;28;20051;-57
2024/02/20 19:25:32;;;;;;;23.38;8.43;;;;;;;17.28;59.25;102169.47;10449196;28;20021;-57
2024/02/20 19:30:33;;;;;;;20.10;8.52;;;;;;;17.27;59.18;102161.69;10449793;28;20032;-58
2024/02/20 19:35:34;;;;;;;19.08;10.02;;;;;;;17.30;59.59;102163.91;10447635;28;20040;-56
2024/02/20 19:40:34;;;;;;;20.65;9.40;;;;;;;17.28;59.74;102163.31;10447528;28;20035;-56
2024/02/20 19:45:35;;;;;;;17.50;9.73;;;;;;;17.39;59.79;102165.84;10448691;28;20388;-56
2024/02/20 19:50:35;;;;;;;17.40;9.20;;;;;;;17.47;58.63;102156.56;10429406;28;20562;-56
2024/02/20 19:55:35;;;;;;;22.92;8.82;;;;;;;17.51;60.46;102155.78;10447961;28;20295;-56
2024/02/20 20:00:36;;;;;;;24.00;9.73;;;;;;;17.51;59.68;102163.84;10450703;28;20025;-57
2024/02/20 20:05:36;;;;;;;19.10;9.00;;;;;;;17.50;60.16;102153.38;10455844;28;20263;-57
2024/02/20 20:10:37;;;;;;;17.35;9.68;;;;;;;17.41;60.50;102149.53;10431658;28;20961;-56
2024/02/20 20:15:37;;;;;;;16.30;8.50;;;;;;;17.35;60.23;102145.97;10456875;28;20041;-55
2024/02/20 20:20:37;;;;;;;14.70;8.00;;;;;;;17.34;59.50;102146.22;10456929;28;20055;-55
2024/02/20 20:25:37;;;;;;;13.23;7.20;;;;;;;17.29;59.38;102143.50;10456842;28;20275;-56
2024/02/20 20:30:38;;;;;;;14.63;7.77;;;;;;;17.31;59.11;102128.78;10455368;28;20035;-57
2024/02/20 20:35:38;;;;;;;17.17;8.67;;;;;;;17.29;59.05;102125.56;10454321;28;20283;-55
2024/02/20 20:40:42;;;;;;;14.83;7.97;;;;;;;17.30;59.41;102116.44;10454552;28;20280;-56
2024/02/20 20:45:43;;;;;;;15.25;7.68;;;;;;;17.33;60.03;102099.03;10452982;28;20370;-56
2024/02/20 20:50:43;;;;;;;19.60;8.63;;;;;;;17.34;59.41;102098.78;10454111;28;20037;-56
2024/02/20 20:55:44;;;;;;;15.20;7.53;;;;;;;17.32;60.15;102114.31;10454881;28;20119;-56
2024/02/20 21:00:45;;;;;;;19.55;7.95;;;;;;;17.34;58.38;102104.16;10453991;28;20025;-56
2024/02/20 21:05:45;;;;;;;13.13;6.97;;;;;;;17.34;59.31;102101.47;10454758;28;20043;-56
2024/02/20 21:10:45;;;;;;;17.25;7.50;;;;;;;17.37;58.07;102100.94;10454235;28;20079;-56
2024/02/20 21:15:46;;;;;;;15.02;7.57;;;;;;;17.37;58.51;102102.81;10454591;28;20024;-56
2024/02/20 21:20:46;;;;;;;15.60;7.25;;;;;;;17.37;58.38;102106.31;10454701;28;20108;-57
2024/02/20 21:25:46;;;;;;;10.23;6.47;;;;;;;17.38;58.89;102107.13;10454439;28;20021;-56
2024/02/20 21:30:47;;;;;;;16.52;6.97;;;;;;;17.39;58.34;102089.97;10454067;28;20024;-57
2024/02/20 21:35:47;;;;;;;14.13;5.80;;;;;;;17.38;58.83;102088.34;10454207;28;20373;-55
2024/02/20 21:40:48;;;;;;;13.70;6.57;;;;;;;17.39;59.60;102090.78;10453787;28;20362;-56
2024/02/20 21:45:48;;;;;;;9.73;5.43;;;;;;;17.41;57.75;102098.59;10453792;28;20055;-56
2024/02/20 21:50:48;;;;;;;11.70;6.30;;;;;;;17.40;58.65;102095.06;10453185;28;20630;-56
2024/02/20 21:55:49;;;;;;;12.50;6.00;;;;;;;17.38;59.08;102091.03;10453672;28;20340;-56
2024/02/20 22:00:49;;;;;;;9.07;6.22;;;;;;;17.36;59.61;102088.63;10451932;28;20362;-56
2024/02/20 22:05:49;;;;;;;8.10;5.03;;;;;;;17.38;57.71;102091.03;10452914;28;20457;-56
2024/02/20 22:10:56;;;;;;;8.73;5.27;;;;;;;17.37;58.50;102087.53;10452259;28;20295;-56
2024/02/20 22:15:57;;;;;;;10.30;5.20;;;;;;;17.40;58.04;102072.81;10452819;28;20277;-56
2024/02/20 22:20:57;;;;;;;10.30;5.13;;;;;;;17.37;58.67;102059.94;10452102;28;20025;-56
2024/02/20 22:26:00;;;;;;;14.02;5.90;;;;;;;17.42;58.76;102051.94;10452382;28;20484;-56
2024/02/20 22:31:00;;;;;;;10.70;5.20;;;;;;;17.41;58.65;102056.50;10451675;28;20104;-56
2024/02/20 22:36:02;;;;;;;14.32;6.35;;;;;;;17.39;58.54;102045.19;10451776;28;20024;-56
2024/02/20 22:41:03;;;;;;;10.45;6.03;;;;;;;17.37;57.55;102044.66;10451476;28;20068;-56
2024/02/20 22:46:03;;;;;;;8.27;4.38;;;;;;;17.42;58.32;102047.38;10451643;28;20044;-56
2024/02/20 22:51:04;;;;;;;9.18;4.85;;;;;;;17.41;58.41;102047.66;10450877;28;20082;-56